createdAt,value
2019-05-02T00:03:31.039Z,47.53
2019-05-02T00:08:33.172Z,42.57
2019-05-02T00:13:35.670Z,43.60
2019-05-02T00:18:38.887Z,38.60
2019-05-02T00:23:40.304Z,38.67
2019-05-02T00:28:42.915Z,53.03
2019-05-02T00:33:44.849Z,45.77
2019-05-02T00:38:46.318Z,37.77
2019-05-02T00:43:47.690Z,48.27
2019-05-02T00:48:49.307Z,42.87
2019-05-02T00:53:50.596Z,49.93
2019-05-02T00:58:52.188Z,48.13
2019-05-02T01:03:53.816Z,47.30
2019-05-02T01:08:55.661Z,50.60
2019-05-02T01:13:57.743Z,50.27
2019-05-02T01:18:59.116Z,46.30
2019-05-02T01:24:03.076Z,49.63
2019-05-02T01:29:03.654Z,48.43
2019-05-02T01:34:05.058Z,45.33
2019-05-02T01:39:07.620Z,50.40
2019-05-02T01:44:09.579Z,50.00
2019-05-02T01:49:10.816Z,54.70
2019-05-02T01:54:12.376Z,59.20
2019-05-02T01:59:13.623Z,53.37
2019-05-02T02:04:16.152Z,52.60
2019-05-02T02:09:18.051Z,58.27
2019-05-02T02:14:19.638Z,58.80
2019-05-02T02:19:21.035Z,63.37
2019-05-02T02:24:25.254Z,57.47
2019-05-02T02:29:26.137Z,63.87
2019-05-02T02:34:29.920Z,65.40
2019-05-02T02:39:30.915Z,70.63
2019-05-02T02:44:33.582Z,79.83
2019-05-02T02:49:35.574Z,75.77
2019-05-02T02:54:43.086Z,80.70
2019-05-02T02:59:40.162Z,76.53
2019-05-02T03:04:43.925Z,82.67
2019-05-02T03:09:44.556Z,75.93
2019-05-02T03:14:47.272Z,79.70
2019-05-02T03:19:54.209Z,75.87
2019-05-02T03:24:52.062Z,65.10
2019-05-02T03:29:53.272Z,67.17
2019-05-02T03:34:54.732Z,74.80
2019-05-02T03:40:00.188Z,62.27
2019-05-02T03:45:04.398Z,56.63
2019-05-02T03:50:03.358Z,61.70
2019-05-02T03:55:04.592Z,53.43
2019-05-02T04:00:05.853Z,59.53
2019-05-02T04:05:07.181Z,67.80
2019-05-02T04:10:13.348Z,55.33
2019-05-02T04:15:12.719Z,76.57
2019-05-02T04:20:14.103Z,72.57
2019-05-02T04:25:15.507Z,70.53
2019-05-02T04:30:16.756Z,82.78
2019-05-02T04:35:18.360Z,103.03
2019-05-02T04:40:20.029Z,161.73
2019-05-02T04:45:28.738Z,210.67
2019-05-02T04:50:29.265Z,153.70
2019-05-02T04:55:33.265Z,136.97
2019-05-02T05:00:32.939Z,223.97
2019-05-02T05:05:34.586Z,71.13
2019-05-02T05:10:41.450Z,315.50
2019-05-02T05:15:48.369Z,99.93
2019-05-02T05:20:46.051Z,132.83
2019-05-02T05:25:47.907Z,117.83
2019-05-02T05:30:52.235Z,221.90
2019-05-02T05:35:53.427Z,134.30
2019-05-02T05:40:55.216Z,67.43
2019-05-02T05:46:09.071Z,63.67
2019-05-02T05:51:00.022Z,58.90
2019-05-02T05:56:02.597Z,59.87
2019-05-02T06:01:07.035Z,71.83
2019-05-02T06:06:09.748Z,60.73
2019-05-02T06:11:10.510Z,72.73
2019-05-02T06:16:15.041Z,74.50
2019-05-02T06:21:17.079Z,75.30
2019-05-02T06:26:19.404Z,80.83
2019-05-02T06:31:20.699Z,84.40
2019-05-02T06:36:21.986Z,81.77
2019-05-02T06:41:23.604Z,91.83
2019-05-02T06:46:36.443Z,98.83
2019-05-02T06:51:38.000Z,94.13
2019-05-02T06:56:43.048Z,101.43
2019-05-02T07:01:42.682Z,103.13
2019-05-02T07:06:57.669Z,102.60
2019-05-02T07:11:56.915Z,108.97
2019-05-02T07:16:54.634Z,100.63
2019-05-02T07:21:58.424Z,93.60
2019-05-02T07:26:58.156Z,99.07
2019-05-02T07:31:59.475Z,89.40
2019-05-02T07:37:00.976Z,82.17
2019-05-02T07:42:05.809Z,80.30
2019-05-02T07:47:05.689Z,87.17
2019-05-02T07:52:07.029Z,80.33
2019-05-02T07:57:08.399Z,84.10
2019-05-02T08:02:09.794Z,74.13
2019-05-02T08:07:11.286Z,76.23
2019-05-02T08:12:12.526Z,56.50
2019-05-02T08:17:16.976Z,58.83
2019-05-02T08:22:17.404Z,58.20
2019-05-02T08:27:18.647Z,48.90
2019-05-02T08:32:20.190Z,56.68
2019-05-02T08:37:21.444Z,50.17
2019-05-02T08:42:22.794Z,53.52
2019-05-02T08:47:28.516Z,48.42
2019-05-02T08:52:27.306Z,51.92
2019-05-02T08:57:30.084Z,54.53
2019-05-02T09:02:41.086Z,54.95
2019-05-02T09:07:37.095Z,56.48
2019-05-02T09:12:43.650Z,50.30
2019-05-02T09:17:44.624Z,56.73
2019-05-02T09:22:51.387Z,56.40
2019-05-02T09:27:49.997Z,63.65
2019-05-02T09:32:52.179Z,60.80
2019-05-02T09:37:54.121Z,61.25
2019-05-02T09:43:00.006Z,69.07
2019-05-02T09:48:05.160Z,67.70
2019-05-02T09:53:02.122Z,77.35
2019-05-02T09:58:03.467Z,71.87
2019-05-02T10:03:05.243Z,80.10
2019-05-02T10:08:09.110Z,89.75
2019-05-02T10:13:12.067Z,109.42
2019-05-02T10:18:14.593Z,101.47
2019-05-02T10:23:19.482Z,110.67
2019-05-02T10:28:19.976Z,111.43
2019-05-02T10:33:22.532Z,115.57
2019-05-02T10:38:24.215Z,112.97
2019-05-02T10:43:25.460Z,116.10
2019-05-02T10:48:28.624Z,113.73
2019-05-02T10:53:32.137Z,117.60
2019-05-02T10:58:35.723Z,106.67
2019-05-02T11:03:38.120Z,110.00
2019-05-02T11:08:42.242Z,113.93
2019-05-02T11:13:43.263Z,113.67
2019-05-02T11:18:45.315Z,104.50
2019-05-02T11:23:46.666Z,103.95
2019-05-02T11:28:48.222Z,111.43
2019-05-02T11:33:49.909Z,115.30
2019-05-02T11:38:59.556Z,100.15
2019-05-02T11:43:55.841Z,104.27
2019-05-02T11:48:58.667Z,102.73
2019-05-02T11:54:05.179Z,99.67
2019-05-02T11:59:04.475Z,98.57
2019-05-02T12:04:07.576Z,92.67
2019-05-02T12:09:08.902Z,93.60
2019-05-02T12:14:12.224Z,92.30
2019-05-02T12:19:14.935Z,81.17
2019-05-02T12:24:16.475Z,81.27
2019-05-02T12:29:18.065Z,80.17
2019-05-02T12:34:21.594Z,74.77
2019-05-02T12:39:22.916Z,79.33
2019-05-02T12:44:24.501Z,53.50
2019-05-02T12:49:28.014Z,32.77
2019-05-02T12:54:29.444Z,26.93
2019-05-02T12:59:32.194Z,27.57
2019-05-02T13:04:33.689Z,22.57
2019-05-02T13:09:35.031Z,21.77
2019-05-02T13:14:37.581Z,23.37
2019-05-02T13:19:41.369Z,23.67
2019-05-02T13:24:42.379Z,26.20
2019-05-02T13:29:43.761Z,21.93
2019-05-02T13:34:48.703Z,20.40
2019-05-02T13:39:48.429Z,18.80
2019-05-02T13:44:49.678Z,18.57
2019-05-02T13:49:54.869Z,23.07
2019-05-02T13:54:56.790Z,26.27
2019-05-02T13:59:58.054Z,31.47
2019-05-02T14:04:59.424Z,39.30
2019-05-02T14:10:02.472Z,44.38
2019-05-02T14:15:04.208Z,36.13
2019-05-02T14:20:10.753Z,37.85
2019-05-02T14:25:08.766Z,35.88
2019-05-02T14:30:12.003Z,35.73
2019-05-02T14:35:13.612Z,36.98
2019-05-02T14:40:15.514Z,31.85
2019-05-02T14:45:27.235Z,31.33
2019-05-02T14:50:24.299Z,37.75
2019-05-02T14:55:25.615Z,32.33
2019-05-02T15:00:33.388Z,36.85
2019-05-02T15:05:30.376Z,36.95
2019-05-02T15:10:35.047Z,43.15
2019-05-02T15:15:40.714Z,34.30
2019-05-02T15:20:39.472Z,33.90
2019-05-02T15:25:42.368Z,35.83
2019-05-02T15:30:49.188Z,36.42
2019-05-02T15:35:47.381Z,37.42
2019-05-02T15:40:51.467Z,28.40
2019-05-02T15:45:52.730Z,24.07
2019-05-02T15:50:55.350Z,27.13
2019-05-02T15:55:57.588Z,20.40
2019-05-02T16:01:01.715Z,16.40
2019-05-02T16:06:02.322Z,14.05
2019-05-02T16:11:03.637Z,15.45
2019-05-02T16:16:05.576Z,13.48
2019-05-02T16:21:08.001Z,10.70
2019-05-02T16:26:09.418Z,10.53
2019-05-02T16:31:12.574Z,8.50
2019-05-02T16:36:14.095Z,6.95
2019-05-02T16:41:15.343Z,9.90
2019-05-02T16:46:16.714Z,9.73
2019-05-02T16:51:30.305Z,9.50
2019-05-02T16:56:22.276Z,13.40
2019-05-02T17:01:27.517Z,12.83
2019-05-02T17:06:27.207Z,14.73
2019-05-02T17:11:34.122Z,10.07
2019-05-02T17:16:31.890Z,14.90
2019-05-02T17:21:52.343Z,12.27
2019-05-02T17:26:36.749Z,10.93
2019-05-02T17:31:40.295Z,10.97
2019-05-02T17:36:43.021Z,11.07
2019-05-02T17:41:45.760Z,12.13
2019-05-02T17:46:50.811Z,7.47
2019-05-02T17:51:51.882Z,12.20
2019-05-02T17:56:57.628Z,10.23
2019-05-02T18:01:56.753Z,7.03
2019-05-02T18:06:58.373Z,9.50
2019-05-02T18:12:01.509Z,8.80
2019-05-02T18:17:02.987Z,6.53
2019-05-02T18:22:07.158Z,8.13
2019-05-02T18:27:08.079Z,7.37
2019-05-02T18:32:17.454Z,4.90
2019-05-02T18:37:17.869Z,7.60
2019-05-02T18:42:22.115Z,6.90
2019-05-02T18:47:24.801Z,5.30
2019-05-02T18:52:36.414Z,6.87
2019-05-02T18:57:30.391Z,7.07
2019-05-02T19:02:35.415Z,8.67
2019-05-02T19:07:35.916Z,6.97
2019-05-02T19:12:37.321Z,6.53
2019-05-02T19:17:40.519Z,9.67
2019-05-02T19:22:48.802Z,8.73
2019-05-02T19:27:45.922Z,6.00
2019-05-02T19:32:47.723Z,9.57
2019-05-02T19:37:49.335Z,9.50
2019-05-02T19:42:52.695Z,11.30
2019-05-02T19:47:57.695Z,9.50
2019-05-02T19:53:02.063Z,11.13
2019-05-02T19:58:06.266Z,9.07
2019-05-02T20:03:05.608Z,10.20
2019-05-02T20:08:09.695Z,6.77
2019-05-02T20:13:12.017Z,8.10
2019-05-02T20:18:14.918Z,11.03
2019-05-02T20:23:18.768Z,7.57
2019-05-02T20:28:21.312Z,8.10
2019-05-02T20:33:23.212Z,5.87
2019-05-02T20:38:24.917Z,4.20
2019-05-02T20:43:26.724Z,7.67
2019-05-02T20:48:28.676Z,6.73
2019-05-02T20:53:33.378Z,7.10
2019-05-02T20:58:33.272Z,11.30
2019-05-02T21:03:35.012Z,8.93
2019-05-02T21:08:36.443Z,12.13
2019-05-02T21:13:37.715Z,10.17
2019-05-02T21:18:39.023Z,14.47
2019-05-02T21:23:44.773Z,13.43
2019-05-02T21:28:46.103Z,10.77
2019-05-02T21:33:47.080Z,12.73
2019-05-02T21:38:48.791Z,14.17
2019-05-02T21:43:51.895Z,12.37
2019-05-02T21:48:53.783Z,13.77
2019-05-02T21:53:58.144Z,9.77
2019-05-02T21:58:58.266Z,16.90
2019-05-02T22:03:59.673Z,15.27
2019-05-02T22:09:02.903Z,11.23
2019-05-02T22:14:04.646Z,15.27
2019-05-02T22:19:06.185Z,13.67
2019-05-02T22:24:11.499Z,17.10
2019-05-02T22:29:12.341Z,13.70
2019-05-02T22:34:13.983Z,10.00
2019-05-02T22:39:15.620Z,18.07
2019-05-02T22:44:16.902Z,14.07
2019-05-02T22:49:18.289Z,15.47
2019-05-02T22:54:29.966Z,23.23
2019-05-02T22:59:24.031Z,12.93
2019-05-02T23:04:25.734Z,11.53
2019-05-02T23:09:27.128Z,19.67
2019-05-02T23:14:28.664Z,11.10
2019-05-02T23:19:31.698Z,19.97
2019-05-02T23:24:39.069Z,9.53
2019-05-02T23:29:36.453Z,11.27
2019-05-02T23:34:38.016Z,18.63
2019-05-02T23:39:39.273Z,18.90
2019-05-02T23:44:42.553Z,13.03
2019-05-02T23:49:44.086Z,13.60
2019-05-02T23:54:51.774Z,14.60
2019-05-02T23:59:49.169Z,14.67
